Terminal Aerodrome Forecast
Issued by NWS

Current Version | Previous Version | Graphics & Text | Print | Product List | Glossary On
Versions: 1 2 3 4 5 6 7 8 9 10 11 12 13 14 15 16 17 18 19
000
FTUS41 KPBZ 251144
TAFHLG
TAF
KHLG 251144Z 2512/2612 24004KT P6SM SCT040
     FM251600 24007KT P6SM VCTS BKN040CB
     FM260300 25003KT 5SM BR BKN250
     FM260700 28003KT 3SM BR BKN250
     FM261000 30003KT 2SM BR SCT003=

USA.gov is the U.S. government's official web portal to all federal, state and local government web resources and services.